sensor_id;sensor_type;location;lat;lon;timestamp;P1;durP1;ratioP1;P2;durP2;ratioP2
73120;SDS011;61307;49.628;-1.624;2024-02-15T00:00:37;2.15;;;1.10;;
73120;SDS011;61307;49.628;-1.624;2024-02-15T00:03:05;2.45;;;1.20;;
73120;SDS011;61307;49.628;-1.624;2024-02-15T00:05:32;1.23;;;1.00;;
73120;SDS011;61307;49.628;-1.624;2024-02-15T00:08:01;2.92;;;1.15;;
73120;SDS011;61307;49.628;-1.624;2024-02-15T00:10:29;1.83;;;1.20;;
73120;SDS011;61307;49.628;-1.624;2024-02-15T00:12:56;2.38;;;1.33;;
73120;SDS011;61307;49.628;-1.624;2024-02-15T00:15:23;1.40;;;1.00;;
73120;SDS011;61307;49.628;-1.624;2024-02-15T00:17:50;2.03;;;1.20;;
73120;SDS011;61307;49.628;-1.624;2024-02-15T00:20:19;1.85;;;1.20;;
73120;SDS011;61307;49.628;-1.624;2024-02-15T00:22:46;1.58;;;0.80;;
73120;SDS011;61307;49.628;-1.624;2024-02-15T00:25:14;2.83;;;1.30;;
73120;SDS011;61307;49.628;-1.624;2024-02-15T00:27:42;5.07;;;1.38;;
73120;SDS011;61307;49.628;-1.624;2024-02-15T00:30:09;2.15;;;1.35;;
73120;SDS011;61307;49.628;-1.624;2024-02-15T00:32:36;1.52;;;1.10;;
73120;SDS011;61307;49.628;-1.624;2024-02-15T00:35:03;2.25;;;1.08;;
73120;SDS011;61307;49.628;-1.624;2024-02-15T00:37:34;1.65;;;1.10;;
73120;SDS011;61307;49.628;-1.624;2024-02-15T00:40:01;2.53;;;1.30;;
73120;SDS011;61307;49.628;-1.624;2024-02-15T00:42:28;1.20;;;1.00;;
73120;SDS011;61307;49.628;-1.624;2024-02-15T00:44:56;1.90;;;1.10;;
73120;SDS011;61307;49.628;-1.624;2024-02-15T00:47:23;2.08;;;1.33;;
73120;SDS011;61307;49.628;-1.624;2024-02-15T00:49:50;1.65;;;1.20;;
73120;SDS011;61307;49.628;-1.624;2024-02-15T00:52:17;2.40;;;1.30;;
73120;SDS011;61307;49.628;-1.624;2024-02-15T00:54:46;3.22;;;1.38;;
73120;SDS011;61307;49.628;-1.624;2024-02-15T00:57:13;3.72;;;1.35;;
73120;SDS011;61307;49.628;-1.624;2024-02-15T00:59:40;2.53;;;1.30;;
73120;SDS011;61307;49.628;-1.624;2024-02-15T01:02:06;1.73;;;1.27;;
73120;SDS011;61307;49.628;-1.624;2024-02-15T01:04:33;2.20;;;1.25;;
73120;SDS011;61307;49.628;-1.624;2024-02-15T01:07:00;1.45;;;1.30;;
73120;SDS011;61307;49.628;-1.624;2024-02-15T01:09:27;2.80;;;1.42;;
73120;SDS011;61307;49.628;-1.624;2024-02-15T01:11:57;2.58;;;1.30;;
73120;SDS011;61307;49.628;-1.624;2024-02-15T01:14:24;1.80;;;1.20;;
73120;SDS011;61307;49.628;-1.624;2024-02-15T01:16:55;2.60;;;1.40;;
73120;SDS011;61307;49.628;-1.624;2024-02-15T01:19:22;1.35;;;1.20;;
73120;SDS011;61307;49.628;-1.624;2024-02-15T01:21:49;3.17;;;1.40;;
73120;SDS011;61307;49.628;-1.624;2024-02-15T01:24:16;2.40;;;1.40;;
73120;SDS011;61307;49.628;-1.624;2024-02-15T01:26:43;1.63;;;1.20;;
73120;SDS011;61307;49.628;-1.624;2024-02-15T01:29:11;2.22;;;1.63;;
73120;SDS011;61307;49.628;-1.624;2024-02-15T01:31:38;2.20;;;1.48;;
73120;SDS011;61307;49.628;-1.624;2024-02-15T01:34:05;2.75;;;1.40;;
73120;SDS011;61307;49.628;-1.624;2024-02-15T01:36:32;3.42;;;1.30;;
73120;SDS011;61307;49.628;-1.624;2024-02-15T01:38:59;2.35;;;1.40;;
73120;SDS011;61307;49.628;-1.624;2024-02-15T01:41:26;3.80;;;1.20;;
73120;SDS011;61307;49.628;-1.624;2024-02-15T01:43:53;1.55;;;1.23;;
73120;SDS011;61307;49.628;-1.624;2024-02-15T01:46:22;3.13;;;1.48;;
73120;SDS011;61307;49.628;-1.624;2024-02-15T01:48:50;2.35;;;1.75;;
73120;SDS011;61307;49.628;-1.624;2024-02-15T01:51:17;2.78;;;1.35;;
73120;SDS011;61307;49.628;-1.624;2024-02-15T01:53:44;4.10;;;1.55;;
73120;SDS011;61307;49.628;-1.624;2024-02-15T01:56:12;1.77;;;1.42;;
73120;SDS011;61307;49.628;-1.624;2024-02-15T01:58:41;2.22;;;1.30;;
73120;SDS011;61307;49.628;-1.624;2024-02-15T02:01:10;3.63;;;1.50;;
73120;SDS011;61307;49.628;-1.624;2024-02-15T02:03:40;3.85;;;1.48;;
73120;SDS011;61307;49.628;-1.624;2024-02-15T02:06:07;1.88;;;1.40;;
73120;SDS011;61307;49.628;-1.624;2024-02-15T02:08:34;2.70;;;1.38;;
73120;SDS011;61307;49.628;-1.624;2024-02-15T02:11:02;2.22;;;1.40;;
73120;SDS011;61307;49.628;-1.624;2024-02-15T02:13:29;2.75;;;1.52;;
73120;SDS011;61307;49.628;-1.624;2024-02-15T02:15:56;2.90;;;1.60;;
73120;SDS011;61307;49.628;-1.624;2024-02-15T02:18:25;3.20;;;1.50;;
73120;SDS011;61307;49.628;-1.624;2024-02-15T02:20:53;4.20;;;1.63;;
73120;SDS011;61307;49.628;-1.624;2024-02-15T02:23:20;2.45;;;1.50;;
73120;SDS011;61307;49.628;-1.624;2024-02-15T02:25:53;2.38;;;1.63;;
73120;SDS011;61307;49.628;-1.624;2024-02-15T02:28:21;2.33;;;1.50;;
73120;SDS011;61307;49.628;-1.624;2024-02-15T02:30:48;2.65;;;1.60;;
73120;SDS011;61307;49.628;-1.624;2024-02-15T02:33:15;3.10;;;1.65;;
73120;SDS011;61307;49.628;-1.624;2024-02-15T02:35:44;2.72;;;1.70;;
73120;SDS011;61307;49.628;-1.624;2024-02-15T02:38:11;4.43;;;1.75;;
73120;SDS011;61307;49.628;-1.624;2024-02-15T02:40:39;2.67;;;1.70;;
73120;SDS011;61307;49.628;-1.624;2024-02-15T02:43:08;2.38;;;1.20;;
73120;SDS011;61307;49.628;-1.624;2024-02-15T02:45:36;2.10;;;1.50;;
73120;SDS011;61307;49.628;-1.624;2024-02-15T02:48:03;3.20;;;1.50;;
73120;SDS011;61307;49.628;-1.624;2024-02-15T02:50:30;3.17;;;1.70;;
73120;SDS011;61307;49.628;-1.624;2024-02-15T02:52:57;2.55;;;1.65;;
73120;SDS011;61307;49.628;-1.624;2024-02-15T02:55:24;1.83;;;1.50;;
73120;SDS011;61307;49.628;-1.624;2024-02-15T02:57:52;2.13;;;1.38;;
73120;SDS011;61307;49.628;-1.624;2024-02-15T03:00:21;3.03;;;1.60;;
73120;SDS011;61307;49.628;-1.624;2024-02-15T03:02:48;3.13;;;1.45;;
73120;SDS011;61307;49.628;-1.624;2024-02-15T03:05:15;1.92;;;1.40;;
73120;SDS011;61307;49.628;-1.624;2024-02-15T03:07:45;4.28;;;1.55;;
73120;SDS011;61307;49.628;-1.624;2024-02-15T03:10:12;1.70;;;1.38;;
73120;SDS011;61307;49.628;-1.624;2024-02-15T03:12:40;3.45;;;1.75;;
73120;SDS011;61307;49.628;-1.624;2024-02-15T03:15:11;2.35;;;1.35;;
73120;SDS011;61307;49.628;-1.624;2024-02-15T03:17:39;2.47;;;1.60;;
73120;SDS011;61307;49.628;-1.624;2024-02-15T03:20:07;5.20;;;1.77;;
73120;SDS011;61307;49.628;-1.624;2024-02-15T03:22:38;3.38;;;1.42;;
73120;SDS011;61307;49.628;-1.624;2024-02-15T03:25:06;4.63;;;1.65;;
73120;SDS011;61307;49.628;-1.624;2024-02-15T03:27:33;2.72;;;1.60;;
73120;SDS011;61307;49.628;-1.624;2024-02-15T03:30:02;3.20;;;1.70;;
73120;SDS011;61307;49.628;-1.624;2024-02-15T03:32:30;3.10;;;1.58;;
73120;SDS011;61307;49.628;-1.624;2024-02-15T03:34:58;4.53;;;1.65;;
73120;SDS011;61307;49.628;-1.624;2024-02-15T03:37:26;1.88;;;1.17;;
73120;SDS011;61307;49.628;-1.624;2024-02-15T03:39:53;3.33;;;1.40;;
73120;SDS011;61307;49.628;-1.624;2024-02-15T03:42:20;3.20;;;1.52;;
73120;SDS011;61307;49.628;-1.624;2024-02-15T03:44:47;3.72;;;1.60;;
73120;SDS011;61307;49.628;-1.624;2024-02-15T03:47:14;2.70;;;1.65;;
73120;SDS011;61307;49.628;-1.624;2024-02-15T03:49:40;2.50;;;1.33;;
73120;SDS011;61307;49.628;-1.624;2024-02-15T03:52:08;1.92;;;1.25;;
73120;SDS011;61307;49.628;-1.624;2024-02-15T03:54:35;2.47;;;1.10;;
73120;SDS011;61307;49.628;-1.624;2024-02-15T03:57:02;1.83;;;1.33;;
73120;SDS011;61307;49.628;-1.624;2024-02-15T03:59:31;1.88;;;1.40;;
73120;SDS011;61307;49.628;-1.624;2024-02-15T04:02:00;1.67;;;1.20;;
73120;SDS011;61307;49.628;-1.624;2024-02-15T04:04:28;1.60;;;1.38;;
73120;SDS011;61307;49.628;-1.624;2024-02-15T04:06:55;2.13;;;1.50;;
73120;SDS011;61307;49.628;-1.624;2024-02-15T04:09:24;1.60;;;1.20;;
73120;SDS011;61307;49.628;-1.624;2024-02-15T04:11:51;3.38;;;1.30;;
73120;SDS011;61307;49.628;-1.624;2024-02-15T04:14:19;2.30;;;1.55;;
73120;SDS011;61307;49.628;-1.624;2024-02-15T04:16:45;1.52;;;1.13;;
73120;SDS011;61307;49.628;-1.624;2024-02-15T04:19:13;1.75;;;1.40;;
73120;SDS011;61307;49.628;-1.624;2024-02-15T04:21:40;2.08;;;1.50;;
73120;SDS011;61307;49.628;-1.624;2024-02-15T04:24:09;1.65;;;1.35;;
73120;SDS011;61307;49.628;-1.624;2024-02-15T04:26:37;2.67;;;1.40;;
73120;SDS011;61307;49.628;-1.624;2024-02-15T04:29:04;3.25;;;1.63;;
73120;SDS011;61307;49.628;-1.624;2024-02-15T04:31:32;1.67;;;1.25;;
73120;SDS011;61307;49.628;-1.624;2024-02-15T04:34:02;1.90;;;1.40;;
73120;SDS011;61307;49.628;-1.624;2024-02-15T04:36:29;2.03;;;1.40;;
73120;SDS011;61307;49.628;-1.624;2024-02-15T04:38:59;2.80;;;1.55;;
73120;SDS011;61307;49.628;-1.624;2024-02-15T04:41:28;2.67;;;1.35;;
73120;SDS011;61307;49.628;-1.624;2024-02-15T04:43:56;1.60;;;1.30;;
73120;SDS011;61307;49.628;-1.624;2024-02-15T04:46:23;1.88;;;1.67;;
73120;SDS011;61307;49.628;-1.624;2024-02-15T04:48:50;2.40;;;1.50;;
73120;SDS011;61307;49.628;-1.624;2024-02-15T04:51:17;2.55;;;1.60;;
73120;SDS011;61307;49.628;-1.624;2024-02-15T04:53:44;1.40;;;1.15;;
73120;SDS011;61307;49.628;-1.624;2024-02-15T04:56:13;2.80;;;1.30;;
73120;SDS011;61307;49.628;-1.624;2024-02-15T04:58:41;1.42;;;1.02;;
73120;SDS011;61307;49.628;-1.624;2024-02-15T05:01:14;2.42;;;1.30;;
73120;SDS011;61307;49.628;-1.624;2024-02-15T05:03:42;2.90;;;1.70;;
73120;SDS011;61307;49.628;-1.624;2024-02-15T05:06:09;3.20;;;1.15;;
73120;SDS011;61307;49.628;-1.624;2024-02-15T05:08:38;2.47;;;1.45;;
73120;SDS011;61307;49.628;-1.624;2024-02-15T05:11:07;2.67;;;1.50;;
73120;SDS011;61307;49.628;-1.624;2024-02-15T05:13:40;2.35;;;1.55;;
73120;SDS011;61307;49.628;-1.624;2024-02-15T05:16:07;2.05;;;1.33;;
73120;SDS011;61307;49.628;-1.624;2024-02-15T05:18:36;2.50;;;1.50;;
73120;SDS011;61307;49.628;-1.624;2024-02-15T05:21:05;1.40;;;1.30;;
73120;SDS011;61307;49.628;-1.624;2024-02-15T05:23:34;1.70;;;1.40;;
73120;SDS011;61307;49.628;-1.624;2024-02-15T05:26:02;1.98;;;1.25;;
73120;SDS011;61307;49.628;-1.624;2024-02-15T05:28:29;2.03;;;1.58;;
73120;SDS011;61307;49.628;-1.624;2024-02-15T05:31:10;3.20;;;1.30;;
73120;SDS011;61307;49.628;-1.624;2024-02-15T05:33:39;2.65;;;1.50;;
73120;SDS011;61307;49.628;-1.624;2024-02-15T05:36:09;1.63;;;1.13;;
73120;SDS011;61307;49.628;-1.624;2024-02-15T05:38:37;2.22;;;1.50;;
73120;SDS011;61307;49.628;-1.624;2024-02-15T05:41:04;3.10;;;1.75;;
73120;SDS011;61307;49.628;-1.624;2024-02-15T05:43:32;1.52;;;1.30;;
73120;SDS011;61307;49.628;-1.624;2024-02-15T05:46:01;3.00;;;1.58;;
73120;SDS011;61307;49.628;-1.624;2024-02-15T05:48:28;1.85;;;1.40;;
73120;SDS011;61307;49.628;-1.624;2024-02-15T05:50:57;1.70;;;1.30;;
73120;SDS011;61307;49.628;-1.624;2024-02-15T05:53:25;1.20;;;1.10;;
73120;SDS011;61307;49.628;-1.624;2024-02-15T05:55:52;2.95;;;1.45;;
73120;SDS011;61307;49.628;-1.624;2024-02-15T05:58:20;1.73;;;1.27;;
73120;SDS011;61307;49.628;-1.624;2024-02-15T06:00:47;2.13;;;1.55;;
73120;SDS011;61307;49.628;-1.624;2024-02-15T06:03:15;2.55;;;1.38;;
73120;SDS011;61307;49.628;-1.624;2024-02-15T06:05:42;1.55;;;1.30;;
73120;SDS011;61307;49.628;-1.624;2024-02-15T06:08:11;2.58;;;1.73;;
73120;SDS011;61307;49.628;-1.624;2024-02-15T06:10:38;2.78;;;1.38;;
73120;SDS011;61307;49.628;-1.624;2024-02-15T06:13:06;2.05;;;1.50;;
73120;SDS011;61307;49.628;-1.624;2024-02-15T06:15:34;2.38;;;1.58;;
73120;SDS011;61307;49.628;-1.624;2024-02-15T06:18:01;2.38;;;1.40;;
73120;SDS011;61307;49.628;-1.624;2024-02-15T06:20:34;2.17;;;1.52;;
73120;SDS011;61307;49.628;-1.624;2024-02-15T06:23:01;2.17;;;1.73;;
73120;SDS011;61307;49.628;-1.624;2024-02-15T06:25:31;2.92;;;1.55;;
73120;SDS011;61307;49.628;-1.624;2024-02-15T06:27:58;1.63;;;1.30;;
73120;SDS011;61307;49.628;-1.624;2024-02-15T06:30:27;1.92;;;1.45;;
73120;SDS011;61307;49.628;-1.624;2024-02-15T06:33:12;2.00;;;1.42;;
73120;SDS011;61307;49.628;-1.624;2024-02-15T06:35:56;3.50;;;1.70;;
73120;SDS011;61307;49.628;-1.624;2024-02-15T06:38:41;2.40;;;1.48;;
73120;SDS011;61307;49.628;-1.624;2024-02-15T06:41:26;1.65;;;1.55;;
73120;SDS011;61307;49.628;-1.624;2024-02-15T06:43:54;2.25;;;1.50;;
73120;SDS011;61307;49.628;-1.624;2024-02-15T06:46:22;1.50;;;1.40;;
73120;SDS011;61307;49.628;-1.624;2024-02-15T06:48:49;1.95;;;1.50;;
73120;SDS011;61307;49.628;-1.624;2024-02-15T06:51:18;1.90;;;1.58;;
73120;SDS011;61307;49.628;-1.624;2024-02-15T06:53:45;1.70;;;1.60;;
73120;SDS011;61307;49.628;-1.624;2024-02-15T06:56:12;2.10;;;1.40;;
73120;SDS011;61307;49.628;-1.624;2024-02-15T06:58:40;3.35;;;1.65;;
73120;SDS011;61307;49.628;-1.624;2024-02-15T07:01:07;1.75;;;1.40;;
73120;SDS011;61307;49.628;-1.624;2024-02-15T07:03:34;2.00;;;1.45;;
73120;SDS011;61307;49.628;-1.624;2024-02-15T07:06:01;1.80;;;1.50;;
73120;SDS011;61307;49.628;-1.624;2024-02-15T07:08:28;4.55;;;1.63;;
73120;SDS011;61307;49.628;-1.624;2024-02-15T07:10:56;1.98;;;1.60;;
73120;SDS011;61307;49.628;-1.624;2024-02-15T07:13:23;2.70;;;1.48;;
73120;SDS011;61307;49.628;-1.624;2024-02-15T07:15:53;2.13;;;1.50;;
73120;SDS011;61307;49.628;-1.624;2024-02-15T07:18:20;2.20;;;1.40;;
73120;SDS011;61307;49.628;-1.624;2024-02-15T07:20:47;2.13;;;1.60;;
73120;SDS011;61307;49.628;-1.624;2024-02-15T07:23:14;2.28;;;1.60;;
73120;SDS011;61307;49.628;-1.624;2024-02-15T07:25:41;1.85;;;1.48;;
73120;SDS011;61307;49.628;-1.624;2024-02-15T07:28:08;1.75;;;1.50;;
73120;SDS011;61307;49.628;-1.624;2024-02-15T07:30:35;2.25;;;1.48;;
73120;SDS011;61307;49.628;-1.624;2024-02-15T07:33:05;1.90;;;1.27;;
73120;SDS011;61307;49.628;-1.624;2024-02-15T07:35:32;2.58;;;1.63;;
73120;SDS011;61307;49.628;-1.624;2024-02-15T07:38:00;2.05;;;1.50;;
73120;SDS011;61307;49.628;-1.624;2024-02-15T07:40:27;2.67;;;1.55;;
73120;SDS011;61307;49.628;-1.624;2024-02-15T07:42:56;2.13;;;1.70;;
73120;SDS011;61307;49.628;-1.624;2024-02-15T07:45:23;1.63;;;1.50;;
73120;SDS011;61307;49.628;-1.624;2024-02-15T07:47:50;2.05;;;1.50;;
73120;SDS011;61307;49.628;-1.624;2024-02-15T07:50:20;2.30;;;1.67;;
73120;SDS011;61307;49.628;-1.624;2024-02-15T07:52:48;2.10;;;1.60;;
73120;SDS011;61307;49.628;-1.624;2024-02-15T07:55:16;1.92;;;1.38;;
73120;SDS011;61307;49.628;-1.624;2024-02-15T07:57:43;3.35;;;1.65;;
73120;SDS011;61307;49.628;-1.624;2024-02-15T08:00:12;4.85;;;1.60;;
73120;SDS011;61307;49.628;-1.624;2024-02-15T08:02:41;3.65;;;1.40;;
73120;SDS011;61307;49.628;-1.624;2024-02-15T08:05:09;7.38;;;1.70;;
73120;SDS011;61307;49.628;-1.624;2024-02-15T08:07:41;4.97;;;1.75;;
73120;SDS011;61307;49.628;-1.624;2024-02-15T08:10:09;3.20;;;1.80;;
73120;SDS011;61307;49.628;-1.624;2024-02-15T08:12:39;3.05;;;1.63;;
73120;SDS011;61307;49.628;-1.624;2024-02-15T08:15:08;5.05;;;1.65;;
73120;SDS011;61307;49.628;-1.624;2024-02-15T08:17:37;3.40;;;1.33;;
73120;SDS011;61307;49.628;-1.624;2024-02-15T08:20:06;8.32;;;1.67;;
73120;SDS011;61307;49.628;-1.624;2024-02-15T08:22:34;5.50;;;1.65;;
73120;SDS011;61307;49.628;-1.624;2024-02-15T08:25:05;2.25;;;1.70;;
73120;SDS011;61307;49.628;-1.624;2024-02-15T08:27:36;4.40;;;1.67;;
73120;SDS011;61307;49.628;-1.624;2024-02-15T08:30:07;3.55;;;1.70;;
73120;SDS011;61307;49.628;-1.624;2024-02-15T08:32:35;2.40;;;1.80;;
73120;SDS011;61307;49.628;-1.624;2024-02-15T08:35:07;4.10;;;2.25;;
73120;SDS011;61307;49.628;-1.624;2024-02-15T08:37:35;3.20;;;1.80;;
73120;SDS011;61307;49.628;-1.624;2024-02-15T08:40:03;4.85;;;1.77;;
73120;SDS011;61307;49.628;-1.624;2024-02-15T08:42:36;2.95;;;1.67;;
73120;SDS011;61307;49.628;-1.624;2024-02-15T08:45:03;5.00;;;1.80;;
73120;SDS011;61307;49.628;-1.624;2024-02-15T08:47:34;3.13;;;1.60;;
73120;SDS011;61307;49.628;-1.624;2024-02-15T08:50:03;3.85;;;1.60;;
73120;SDS011;61307;49.628;-1.624;2024-02-15T08:52:30;7.07;;;1.98;;
73120;SDS011;61307;49.628;-1.624;2024-02-15T08:54:57;2.53;;;1.92;;
73120;SDS011;61307;49.628;-1.624;2024-02-15T08:57:27;2.50;;;1.80;;
73120;SDS011;61307;49.628;-1.624;2024-02-15T08:59:54;3.67;;;1.40;;
73120;SDS011;61307;49.628;-1.624;2024-02-15T09:02:21;8.25;;;1.70;;
73120;SDS011;61307;49.628;-1.624;2024-02-15T09:04:48;2.70;;;1.40;;
73120;SDS011;61307;49.628;-1.624;2024-02-15T09:07:15;2.70;;;1.52;;
73120;SDS011;61307;49.628;-1.624;2024-02-15T09:09:42;2.10;;;1.67;;
73120;SDS011;61307;49.628;-1.624;2024-02-15T09:12:09;7.68;;;1.48;;
73120;SDS011;61307;49.628;-1.624;2024-02-15T09:14:38;2.72;;;1.63;;
73120;SDS011;61307;49.628;-1.624;2024-02-15T09:17:05;3.60;;;1.77;;
73120;SDS011;61307;49.628;-1.624;2024-02-15T09:19:33;3.08;;;1.40;;
73120;SDS011;61307;49.628;-1.624;2024-02-15T09:22:00;14.57;;;1.60;;
73120;SDS011;61307;49.628;-1.624;2024-02-15T09:24:30;2.75;;;1.70;;
73120;SDS011;61307;49.628;-1.624;2024-02-15T09:26:58;3.97;;;1.70;;
73120;SDS011;61307;49.628;-1.624;2024-02-15T09:29:26;4.55;;;1.77;;
73120;SDS011;61307;49.628;-1.624;2024-02-15T09:31:56;4.75;;;1.67;;
73120;SDS011;61307;49.628;-1.624;2024-02-15T09:34:23;3.25;;;1.60;;
73120;SDS011;61307;49.628;-1.624;2024-02-15T09:36:51;2.47;;;1.50;;
73120;SDS011;61307;49.628;-1.624;2024-02-15T09:39:18;3.72;;;1.50;;
73120;SDS011;61307;49.628;-1.624;2024-02-15T09:41:44;2.97;;;1.60;;
73120;SDS011;61307;49.628;-1.624;2024-02-15T09:44:15;2.47;;;1.60;;
73120;SDS011;61307;49.628;-1.624;2024-02-15T09:46:42;2.55;;;1.65;;
73120;SDS011;61307;49.628;-1.624;2024-02-15T09:49:12;1.80;;;1.50;;
73120;SDS011;61307;49.628;-1.624;2024-02-15T09:51:40;2.10;;;1.27;;
73120;SDS011;61307;49.628;-1.624;2024-02-15T09:54:08;2.90;;;1.65;;
73120;SDS011;61307;49.628;-1.624;2024-02-15T09:56:38;2.60;;;1.60;;
73120;SDS011;61307;49.628;-1.624;2024-02-15T09:59:07;3.55;;;1.90;;
73120;SDS011;61307;49.628;-1.624;2024-02-15T10:01:34;2.17;;;1.40;;
73120;SDS011;61307;49.628;-1.624;2024-02-15T10:04:03;3.45;;;1.63;;
73120;SDS011;61307;49.628;-1.624;2024-02-15T10:06:34;2.85;;;1.40;;
73120;SDS011;61307;49.628;-1.624;2024-02-15T10:11:54;1.85;;;1.20;;
73120;SDS011;61307;49.628;-1.624;2024-02-15T10:14:23;4.10;;;1.50;;
73120;SDS011;61307;49.628;-1.624;2024-02-15T10:16:51;2.70;;;1.55;;
73120;SDS011;61307;49.628;-1.624;2024-02-15T10:19:19;2.42;;;1.52;;
73120;SDS011;61307;49.628;-1.624;2024-02-15T10:21:52;2.38;;;1.40;;
73120;SDS011;61307;49.628;-1.624;2024-02-15T10:24:21;5.30;;;1.40;;
73120;SDS011;61307;49.628;-1.624;2024-02-15T10:26:49;4.70;;;1.40;;
73120;SDS011;61307;49.628;-1.624;2024-02-15T10:29:16;2.03;;;1.55;;
73120;SDS011;61307;49.628;-1.624;2024-02-15T10:31:54;4.15;;;1.80;;
73120;SDS011;61307;49.628;-1.624;2024-02-15T10:34:23;5.57;;;1.65;;
73120;SDS011;61307;49.628;-1.624;2024-02-15T10:36:54;3.78;;;1.50;;
73120;SDS011;61307;49.628;-1.624;2024-02-15T10:39:22;2.63;;;1.48;;
73120;SDS011;61307;49.628;-1.624;2024-02-15T10:41:50;3.58;;;1.83;;
73120;SDS011;61307;49.628;-1.624;2024-02-15T10:44:18;5.22;;;1.40;;
73120;SDS011;61307;49.628;-1.624;2024-02-15T10:46:46;1.88;;;1.30;;
73120;SDS011;61307;49.628;-1.624;2024-02-15T10:49:17;2.63;;;1.58;;
73120;SDS011;61307;49.628;-1.624;2024-02-15T10:51:48;4.35;;;1.42;;
73120;SDS011;61307;49.628;-1.624;2024-02-15T10:54:22;2.83;;;1.55;;
73120;SDS011;61307;49.628;-1.624;2024-02-15T10:57:03;2.80;;;1.63;;
73120;SDS011;61307;49.628;-1.624;2024-02-15T10:59:32;3.00;;;1.50;;
73120;SDS011;61307;49.628;-1.624;2024-02-15T11:02:03;2.25;;;1.30;;
73120;SDS011;61307;49.628;-1.624;2024-02-15T11:04:48;2.08;;;1.52;;
73120;SDS011;61307;49.628;-1.624;2024-02-15T11:07:20;3.08;;;1.52;;
73120;SDS011;61307;49.628;-1.624;2024-02-15T11:09:49;1.65;;;1.50;;
73120;SDS011;61307;49.628;-1.624;2024-02-15T11:12:16;3.10;;;1.80;;
73120;SDS011;61307;49.628;-1.624;2024-02-15T11:14:45;2.65;;;1.55;;
73120;SDS011;61307;49.628;-1.624;2024-02-15T11:17:12;2.53;;;1.48;;
73120;SDS011;61307;49.628;-1.624;2024-02-15T11:23:14;1.92;;;1.40;;
73120;SDS011;61307;49.628;-1.624;2024-02-15T11:25:51;2.92;;;1.48;;
73120;SDS011;61307;49.628;-1.624;2024-02-15T11:28:35;5.82;;;1.50;;
73120;SDS011;61307;49.628;-1.624;2024-02-15T11:31:04;3.53;;;1.60;;
73120;SDS011;61307;49.628;-1.624;2024-02-15T11:33:37;2.10;;;1.55;;
73120;SDS011;61307;49.628;-1.624;2024-02-15T11:36:05;2.80;;;1.45;;
73120;SDS011;61307;49.628;-1.624;2024-02-15T11:38:33;2.22;;;1.35;;
73120;SDS011;61307;49.628;-1.624;2024-02-15T11:41:03;2.33;;;1.60;;
73120;SDS011;61307;49.628;-1.624;2024-02-15T11:43:49;5.10;;;1.65;;
73120;SDS011;61307;49.628;-1.624;2024-02-15T11:46:21;4.72;;;1.50;;
73120;SDS011;61307;49.628;-1.624;2024-02-15T11:48:51;2.50;;;1.33;;
73120;SDS011;61307;49.628;-1.624;2024-02-15T11:51:28;2.75;;;1.50;;
73120;SDS011;61307;49.628;-1.624;2024-02-15T11:54:02;3.85;;;1.67;;
73120;SDS011;61307;49.628;-1.624;2024-02-15T11:56:50;2.33;;;1.60;;
73120;SDS011;61307;49.628;-1.624;2024-02-15T11:59:19;2.90;;;1.65;;
73120;SDS011;61307;49.628;-1.624;2024-02-15T12:01:57;3.38;;;1.52;;
73120;SDS011;61307;49.628;-1.624;2024-02-15T12:04:41;2.70;;;1.63;;
73120;SDS011;61307;49.628;-1.624;2024-02-15T12:07:26;2.03;;;1.13;;
73120;SDS011;61307;49.628;-1.624;2024-02-15T12:10:15;4.03;;;1.45;;
73120;SDS011;61307;49.628;-1.624;2024-02-15T12:13:02;4.80;;;1.70;;
73120;SDS011;61307;49.628;-1.624;2024-02-15T12:15:56;2.38;;;1.60;;
73120;SDS011;61307;49.628;-1.624;2024-02-15T12:18:42;4.03;;;1.70;;
73120;SDS011;61307;49.628;-1.624;2024-02-15T12:21:12;2.80;;;1.50;;
73120;SDS011;61307;49.628;-1.624;2024-02-15T12:23:41;2.55;;;1.50;;
73120;SDS011;61307;49.628;-1.624;2024-02-15T12:26:08;3.05;;;1.70;;
73120;SDS011;61307;49.628;-1.624;2024-02-15T12:28:37;4.43;;;1.70;;
73120;SDS011;61307;49.628;-1.624;2024-02-15T12:31:04;2.85;;;1.70;;
73120;SDS011;61307;49.628;-1.624;2024-02-15T12:33:32;5.30;;;1.70;;
73120;SDS011;61307;49.628;-1.624;2024-02-15T12:36:06;2.70;;;1.67;;
73120;SDS011;61307;49.628;-1.624;2024-02-15T12:38:33;2.08;;;1.58;;
73120;SDS011;61307;49.628;-1.624;2024-02-15T12:41:03;5.10;;;1.60;;
73120;SDS011;61307;49.628;-1.624;2024-02-15T12:43:44;2.08;;;1.45;;
73120;SDS011;61307;49.628;-1.624;2024-02-15T12:46:11;3.90;;;1.83;;
73120;SDS011;61307;49.628;-1.624;2024-02-15T12:48:38;2.35;;;1.63;;
73120;SDS011;61307;49.628;-1.624;2024-02-15T12:51:12;5.47;;;1.98;;
73120;SDS011;61307;49.628;-1.624;2024-02-15T12:53:40;9.07;;;2.20;;
73120;SDS011;61307;49.628;-1.624;2024-02-15T12:56:07;3.85;;;1.90;;
73120;SDS011;61307;49.628;-1.624;2024-02-15T12:58:34;3.17;;;1.98;;
73120;SDS011;61307;49.628;-1.624;2024-02-15T13:01:03;4.60;;;1.70;;
73120;SDS011;61307;49.628;-1.624;2024-02-15T13:03:30;5.75;;;1.90;;
73120;SDS011;61307;49.628;-1.624;2024-02-15T13:05:57;2.92;;;1.98;;
73120;SDS011;61307;49.628;-1.624;2024-02-15T13:08:24;2.70;;;1.58;;
73120;SDS011;61307;49.628;-1.624;2024-02-15T13:10:51;5.05;;;1.98;;
73120;SDS011;61307;49.628;-1.624;2024-02-15T13:13:18;2.65;;;1.70;;
73120;SDS011;61307;49.628;-1.624;2024-02-15T13:15:46;5.88;;;2.20;;
73120;SDS011;61307;49.628;-1.624;2024-02-15T13:18:14;5.25;;;1.92;;
73120;SDS011;61307;49.628;-1.624;2024-02-15T13:20:42;4.97;;;1.92;;
73120;SDS011;61307;49.628;-1.624;2024-02-15T13:23:10;6.70;;;2.00;;
73120;SDS011;61307;49.628;-1.624;2024-02-15T13:25:44;5.53;;;2.20;;
73120;SDS011;61307;49.628;-1.624;2024-02-15T13:28:11;5.13;;;2.33;;
73120;SDS011;61307;49.628;-1.624;2024-02-15T13:30:38;5.15;;;2.15;;
73120;SDS011;61307;49.628;-1.624;2024-02-15T13:33:07;5.43;;;2.20;;
73120;SDS011;61307;49.628;-1.624;2024-02-15T13:35:36;3.40;;;1.95;;
73120;SDS011;61307;49.628;-1.624;2024-02-15T13:38:03;9.52;;;2.00;;
73120;SDS011;61307;49.628;-1.624;2024-02-15T13:40:30;3.10;;;1.80;;
73120;SDS011;61307;49.628;-1.624;2024-02-15T13:42:58;7.68;;;2.00;;
73120;SDS011;61307;49.628;-1.624;2024-02-15T13:45:27;4.60;;;2.17;;
73120;SDS011;61307;49.628;-1.624;2024-02-15T13:47:59;4.50;;;2.08;;
73120;SDS011;61307;49.628;-1.624;2024-02-15T13:50:28;2.90;;;1.98;;
73120;SDS011;61307;49.628;-1.624;2024-02-15T13:52:56;3.67;;;2.05;;
73120;SDS011;61307;49.628;-1.624;2024-02-15T13:55:24;5.88;;;2.55;;
73120;SDS011;61307;49.628;-1.624;2024-02-15T13:57:53;3.88;;;2.00;;
73120;SDS011;61307;49.628;-1.624;2024-02-15T14:00:22;5.47;;;2.10;;
73120;SDS011;61307;49.628;-1.624;2024-02-15T14:02:54;5.43;;;2.00;;
73120;SDS011;61307;49.628;-1.624;2024-02-15T14:05:23;4.47;;;1.83;;
73120;SDS011;61307;49.628;-1.624;2024-02-15T14:07:54;5.88;;;2.00;;
73120;SDS011;61307;49.628;-1.624;2024-02-15T14:10:23;6.93;;;2.40;;
73120;SDS011;61307;49.628;-1.624;2024-02-15T14:12:52;5.75;;;2.38;;
73120;SDS011;61307;49.628;-1.624;2024-02-15T14:15:23;9.45;;;2.45;;
73120;SDS011;61307;49.628;-1.624;2024-02-15T14:17:51;4.53;;;2.10;;
73120;SDS011;61307;49.628;-1.624;2024-02-15T14:20:18;3.40;;;1.90;;
73120;SDS011;61307;49.628;-1.624;2024-02-15T14:22:46;12.43;;;1.98;;
73120;SDS011;61307;49.628;-1.624;2024-02-15T14:25:16;3.35;;;2.17;;
73120;SDS011;61307;49.628;-1.624;2024-02-15T14:27:43;4.85;;;2.00;;
73120;SDS011;61307;49.628;-1.624;2024-02-15T14:30:12;6.63;;;2.30;;
73120;SDS011;61307;49.628;-1.624;2024-02-15T14:32:57;3.35;;;2.13;;
73120;SDS011;61307;49.628;-1.624;2024-02-15T14:35:28;6.70;;;1.95;;
73120;SDS011;61307;49.628;-1.624;2024-02-15T14:37:59;3.22;;;1.92;;
73120;SDS011;61307;49.628;-1.624;2024-02-15T14:40:32;11.45;;;2.17;;
73120;SDS011;61307;49.628;-1.624;2024-02-15T14:43:00;5.28;;;2.03;;
73120;SDS011;61307;49.628;-1.624;2024-02-15T14:45:27;5.10;;;1.98;;
73120;SDS011;61307;49.628;-1.624;2024-02-15T14:47:54;6.82;;;2.38;;
73120;SDS011;61307;49.628;-1.624;2024-02-15T14:50:21;4.53;;;2.00;;